createdAt,value
2022-12-16T00:00:27.419Z,78.87
2022-12-16T00:01:29.991Z,79.01
2022-12-16T00:02:31.954Z,78.88
2022-12-16T00:03:35.048Z,78.97
2022-12-16T00:04:37.144Z,79.18
2022-12-16T00:05:42.992Z,79.21
2022-12-16T00:06:46.618Z,79.00
2022-12-16T00:07:49.526Z,79.00
2022-12-16T00:08:51.947Z,79.22
2022-12-16T00:09:56.165Z,78.93
2022-12-16T00:10:58.664Z,79.17
2022-12-16T00:12:01.154Z,78.84
2022-12-16T00:13:07.278Z,79.21
2022-12-16T00:14:11.491Z,79.06
2022-12-16T00:15:13.957Z,78.98
2022-12-16T00:16:18.191Z,79.02
2022-12-16T00:17:21.047Z,79.30
2022-12-16T00:18:27.519Z,79.18
2022-12-16T00:19:35.177Z,79.25
2022-12-16T00:20:46.818Z,79.18
2022-12-16T00:21:51.474Z,79.15
2022-12-16T00:22:53.252Z,79.18
2022-12-16T00:23:55.968Z,79.46
2022-12-16T00:24:58.911Z,79.32
2022-12-16T00:26:01.556Z,79.22
2022-12-16T00:27:04.198Z,79.13
2022-12-16T00:28:05.982Z,79.35
2022-12-16T00:29:10.978Z,79.17
2022-12-16T00:30:14.766Z,79.42
2022-12-16T00:31:16.941Z,79.25
2022-12-16T00:32:19.607Z,79.37
2022-12-16T00:33:23.878Z,79.50
2022-12-16T00:34:27.340Z,79.36
2022-12-16T00:35:30.444Z,79.23
2022-12-16T00:36:33.465Z,79.25
2022-12-16T00:37:34.941Z,79.25
2022-12-16T00:38:39.240Z,79.15
2022-12-16T00:39:42.583Z,79.03
2022-12-16T00:40:46.499Z,79.14
2022-12-16T00:41:48.019Z,79.41
2022-12-16T00:42:50.475Z,79.12
2022-12-16T00:43:53.903Z,79.22
2022-12-16T00:45:07.638Z,79.49
2022-12-16T00:46:09.453Z,79.02
2022-12-16T00:47:12.097Z,78.86
2022-12-16T00:48:13.891Z,79.16
2022-12-16T00:49:16.530Z,79.42
2022-12-16T00:50:18.212Z,78.89
2022-12-16T00:51:21.334Z,79.08
2022-12-16T00:52:24.893Z,79.06
2022-12-16T00:53:29.463Z,79.18
2022-12-16T00:54:31.143Z,78.95
2022-12-16T00:55:34.090Z,79.09
2022-12-16T00:56:37.024Z,78.90
2022-12-16T00:57:39.643Z,79.22
2022-12-16T00:58:42.643Z,79.22
2022-12-16T00:59:54.160Z,78.97
2022-12-16T01:00:58.799Z,79.10
2022-12-16T01:02:05.085Z,78.90
2022-12-16T01:03:06.875Z,79.07
2022-12-16T01:04:09.444Z,79.12
2022-12-16T01:05:12.666Z,79.30
2022-12-16T01:06:19.346Z,79.18
2022-12-16T01:07:30.940Z,79.38
2022-12-16T01:08:48.107Z,78.96
2022-12-16T01:09:49.662Z,79.13
2022-12-16T01:10:53.306Z,78.66
2022-12-16T01:11:59.352Z,79.16
2022-12-16T01:13:00.867Z,79.09
2022-12-16T01:14:03.345Z,79.32
2022-12-16T01:15:06.791Z,79.12
2022-12-16T01:16:09.330Z,79.37
2022-12-16T01:17:10.887Z,79.22
2022-12-16T01:18:13.432Z,79.35
2022-12-16T01:19:14.970Z,79.15
2022-12-16T01:20:17.618Z,79.10
2022-12-16T01:21:20.089Z,79.22
2022-12-16T01:22:22.496Z,79.30
2022-12-16T01:23:25.946Z,79.09
2022-12-16T01:24:37.435Z,78.99
2022-12-16T01:25:40.028Z,79.37
2022-12-16T01:26:41.905Z,79.18
2022-12-16T01:27:47.026Z,79.25
2022-12-16T01:28:59.844Z,79.10
2022-12-16T01:30:04.365Z,79.03
2022-12-16T01:31:07.558Z,78.94
2022-12-16T01:32:11.982Z,79.11
2022-12-16T01:33:14.558Z,79.00
2022-12-16T01:34:16.873Z,79.06
2022-12-16T01:35:51.462Z,78.87
2022-12-16T01:36:42.043Z,78.88
2022-12-16T01:37:43.594Z,78.80
2022-12-16T01:38:46.077Z,78.90
2022-12-16T01:39:47.845Z,78.79
2022-12-16T01:40:51.473Z,78.88
2022-12-16T01:41:54.434Z,78.57
2022-12-16T01:42:57.295Z,78.66
2022-12-16T01:44:14.611Z,78.58
2022-12-16T01:45:31.255Z,78.81
2022-12-16T01:46:33.791Z,78.53
2022-12-16T01:47:35.627Z,78.58
2022-12-16T01:48:47.755Z,78.48
2022-12-16T01:49:53.243Z,78.52
2022-12-16T01:51:03.300Z,78.57
2022-12-16T01:52:10.429Z,78.65
2022-12-16T01:53:12.409Z,78.42
2022-12-16T01:54:27.243Z,78.63
2022-12-16T01:55:35.112Z,78.50
2022-12-16T01:56:52.367Z,78.24
2022-12-16T01:57:59.610Z,78.53
2022-12-16T01:59:03.107Z,78.39
2022-12-16T02:00:06.682Z,78.44
2022-12-16T02:01:10.924Z,78.66
2022-12-16T02:02:13.758Z,78.90
2022-12-16T02:03:17.272Z,78.69
2022-12-16T02:04:18.890Z,78.62
2022-12-16T02:05:22.479Z,78.65
2022-12-16T02:06:25.347Z,78.72
2022-12-16T02:07:26.935Z,78.65
2022-12-16T02:08:29.421Z,78.61
2022-12-16T02:09:30.993Z,78.88
2022-12-16T02:10:44.970Z,78.53
2022-12-16T02:12:17.052Z,78.56
2022-12-16T02:13:32.180Z,78.34
2022-12-16T02:14:50.351Z,78.54
2022-12-16T02:16:03.662Z,78.22
2022-12-16T02:17:14.894Z,78.42
2022-12-16T02:18:27.146Z,78.32
2022-12-16T02:20:01.225Z,78.56
2022-12-16T02:21:19.314Z,78.68
2022-12-16T02:22:36.802Z,78.09
2022-12-16T02:24:22.492Z,78.66
2022-12-16T02:25:49.559Z,78.41
2022-12-16T02:27:49.867Z,78.50
2022-12-16T02:29:13.822Z,78.43
2022-12-16T02:30:38.109Z,78.60
2022-12-16T02:31:48.105Z,78.45
2022-12-16T02:33:01.461Z,78.46
2022-12-16T02:34:14.411Z,78.85
2022-12-16T02:35:25.393Z,78.47
2022-12-16T02:36:41.865Z,78.40
2022-12-16T02:37:53.629Z,78.62
2022-12-16T02:39:00.616Z,78.54
2022-12-16T02:40:06.673Z,78.80
2022-12-16T02:41:18.614Z,79.02
2022-12-16T02:42:30.467Z,78.76
2022-12-16T02:43:50.099Z,78.83
2022-12-16T02:44:59.405Z,78.98
2022-12-16T02:46:04.050Z,78.74
2022-12-16T02:47:06.611Z,78.93
2022-12-16T02:48:09.159Z,78.60
2022-12-16T02:49:53.597Z,79.19
2022-12-16T02:50:55.106Z,78.69
2022-12-16T02:52:00.138Z,79.06
2022-12-16T02:53:09.699Z,78.47
2022-12-16T02:54:23.077Z,78.76
2022-12-16T02:55:32.998Z,78.52
2022-12-16T02:56:48.507Z,78.95
2022-12-16T02:58:06.653Z,78.73
2022-12-16T02:59:17.234Z,78.92
2022-12-16T03:00:21.865Z,79.08
2022-12-16T03:01:35.552Z,78.97
2022-12-16T03:02:46.069Z,78.89
2022-12-16T03:03:54.692Z,79.03
2022-12-16T03:05:02.694Z,79.00
2022-12-16T03:06:05.732Z,78.81
2022-12-16T03:07:16.372Z,78.89
2022-12-16T03:08:23.196Z,79.01
2022-12-16T03:09:30.913Z,78.98
2022-12-16T03:10:37.331Z,78.85
2022-12-16T03:11:43.420Z,79.04
2022-12-16T03:12:46.003Z,78.91
2022-12-16T03:13:53.694Z,79.04
2022-12-16T03:14:56.029Z,79.17
2022-12-16T03:16:01.150Z,78.97
2022-12-16T03:17:06.975Z,79.07
2022-12-16T03:18:13.217Z,78.83
2022-12-16T03:19:17.338Z,78.85
2022-12-16T03:20:25.765Z,78.89
2022-12-16T03:21:45.367Z,79.04
2022-12-16T03:22:52.654Z,78.92
2022-12-16T03:23:58.521Z,79.18
2022-12-16T03:25:01.070Z,79.36
2022-12-16T03:26:06.297Z,79.15
2022-12-16T03:27:16.658Z,79.33
2022-12-16T03:28:31.682Z,79.34
2022-12-16T03:29:40.277Z,79.11
2022-12-16T03:30:47.299Z,79.25
2022-12-16T03:31:53.734Z,79.11
2022-12-16T03:33:02.474Z,79.08
2022-12-16T03:34:11.265Z,79.21
2022-12-16T03:35:15.667Z,79.22
2022-12-16T03:36:22.974Z,79.17
2022-12-16T03:37:30.832Z,79.50
2022-12-16T03:38:34.888Z,79.55
2022-12-16T03:39:43.050Z,79.64
2022-12-16T03:40:45.148Z,79.27
2022-12-16T03:41:50.648Z,79.21
2022-12-16T03:42:55.049Z,79.48
2022-12-16T03:44:00.168Z,79.34
2022-12-16T03:45:08.311Z,79.31
2022-12-16T03:46:12.786Z,79.21
2022-12-16T03:47:19.761Z,79.24
2022-12-16T03:48:27.002Z,79.07
2022-12-16T03:49:28.643Z,79.68
2022-12-16T03:50:34.249Z,79.55
2022-12-16T03:51:35.827Z,79.67
2022-12-16T03:52:38.279Z,79.11
2022-12-16T03:53:39.940Z,79.42
2022-12-16T03:54:42.383Z,79.49
2022-12-16T03:55:44.056Z,79.36
2022-12-16T03:56:47.528Z,79.10
2022-12-16T03:57:49.013Z,79.11
2022-12-16T03:58:51.492Z,79.05
2022-12-16T03:59:52.968Z,79.02
2022-12-16T04:00:56.199Z,79.22
2022-12-16T04:01:57.910Z,79.34
2022-12-16T04:03:00.834Z,78.88
2022-12-16T04:04:04.172Z,79.23
2022-12-16T04:05:07.432Z,79.26
2022-12-16T04:06:09.701Z,79.13
2022-12-16T04:07:24.655Z,79.27
2022-12-16T04:08:37.362Z,79.01
2022-12-16T04:09:39.651Z,78.80
2022-12-16T04:10:59.726Z,79.10
2022-12-16T04:12:20.159Z,78.96
2022-12-16T04:13:41.512Z,79.07
2022-12-16T04:15:01.784Z,78.84
2022-12-16T04:16:21.855Z,79.08
2022-12-16T04:17:42.019Z,78.88
2022-12-16T04:19:02.415Z,78.83
2022-12-16T04:20:25.343Z,79.07
2022-12-16T04:21:45.552Z,78.69
2022-12-16T04:23:05.974Z,78.56
2022-12-16T04:24:24.023Z,79.00
2022-12-16T04:25:29.903Z,78.72
2022-12-16T04:26:31.449Z,79.11
2022-12-16T04:27:32.960Z,78.64
2022-12-16T04:28:35.522Z,78.79
2022-12-16T04:29:57.084Z,78.77
2022-12-16T04:30:59.723Z,78.73
2022-12-16T04:32:01.393Z,78.90
2022-12-16T04:33:26.111Z,78.47
2022-12-16T04:34:33.943Z,78.63
2022-12-16T04:36:05.803Z,78.56
2022-12-16T04:37:25.931Z,78.41
2022-12-16T04:38:46.498Z,78.48
2022-12-16T04:40:06.810Z,78.65
2022-12-16T04:41:27.011Z,78.31
2022-12-16T04:42:56.753Z,78.42
2022-12-16T04:44:23.522Z,78.31
2022-12-16T04:45:44.362Z,78.51
2022-12-16T04:47:04.701Z,78.55
2022-12-16T04:48:24.762Z,78.43
2022-12-16T04:49:45.031Z,78.72
2022-12-16T04:51:06.844Z,78.63
2022-12-16T04:52:27.189Z,78.70
2022-12-16T04:53:47.157Z,78.67
2022-12-16T04:55:07.451Z,78.49
2022-12-16T04:56:27.254Z,78.72
2022-12-16T04:57:47.686Z,78.69
2022-12-16T04:59:07.940Z,78.40
2022-12-16T05:00:28.932Z,78.62
2022-12-16T05:01:52.167Z,78.76
2022-12-16T05:03:08.731Z,78.51
2022-12-16T05:04:29.127Z,78.50
2022-12-16T05:05:59.437Z,78.75
2022-12-16T05:07:36.312Z,78.71
2022-12-16T05:08:59.526Z,78.67
2022-12-16T05:10:19.847Z,78.51
2022-12-16T05:11:40.226Z,78.62
2022-12-16T05:13:01.146Z,78.00
2022-12-16T05:14:21.460Z,78.13
2022-12-16T05:15:41.875Z,78.00
2022-12-16T05:17:02.587Z,78.02
2022-12-16T05:18:34.787Z,78.08
2022-12-16T05:19:55.047Z,77.65
2022-12-16T05:21:16.265Z,77.67
2022-12-16T05:22:47.685Z,77.94
2022-12-16T05:24:08.313Z,77.61
2022-12-16T05:25:28.750Z,77.52
2022-12-16T05:26:59.896Z,77.72
2022-12-16T05:28:20.287Z,77.99
2022-12-16T05:29:40.546Z,77.87
2022-12-16T05:31:02.017Z,77.60
2022-12-16T05:32:32.423Z,77.82
2022-12-16T05:33:56.349Z,77.91
2022-12-16T05:35:19.622Z,77.76
2022-12-16T05:36:39.830Z,77.80
2022-12-16T05:38:01.361Z,77.92
2022-12-16T05:39:22.034Z,78.00
2022-12-16T05:40:42.288Z,77.64
2022-12-16T05:42:03.061Z,77.88
2022-12-16T05:43:25.439Z,77.81
2022-12-16T05:44:45.948Z,77.94
2022-12-16T05:46:06.239Z,77.94
2022-12-16T05:47:27.422Z,77.91
2022-12-16T05:48:48.006Z,77.65
2022-12-16T05:50:08.288Z,77.64
2022-12-16T05:51:28.552Z,77.44
2022-12-16T05:52:48.871Z,77.66
2022-12-16T05:54:10.483Z,77.78
2022-12-16T05:55:34.093Z,77.57
2022-12-16T05:56:54.598Z,77.65
2022-12-16T05:58:15.938Z,77.71
2022-12-16T05:59:36.034Z,77.81
2022-12-16T06:00:56.343Z,77.87
2022-12-16T06:02:17.036Z,77.85
2022-12-16T06:03:47.562Z,77.67
2022-12-16T06:05:07.770Z,77.99
2022-12-16T06:06:27.994Z,78.06
2022-12-16T06:07:48.231Z,78.20
2022-12-16T06:09:09.674Z,77.66
2022-12-16T06:10:29.944Z,77.96
2022-12-16T06:11:50.341Z,78.10
2022-12-16T06:13:11.984Z,78.15
2022-12-16T06:14:32.670Z,77.81
2022-12-16T06:15:53.829Z,77.95
2022-12-16T06:17:14.116Z,77.81
2022-12-16T06:18:34.493Z,77.95
2022-12-16T06:19:54.820Z,77.74
2022-12-16T06:21:15.803Z,77.62
2022-12-16T06:22:36.070Z,77.47
2022-12-16T06:23:56.115Z,77.69
2022-12-16T06:25:18.885Z,77.54
2022-12-16T06:26:39.220Z,77.58
2022-12-16T06:27:59.579Z,77.52
2022-12-16T06:29:19.791Z,78.10
2022-12-16T06:30:48.697Z,77.67
2022-12-16T06:32:08.579Z,78.16
2022-12-16T06:33:28.956Z,77.92
2022-12-16T06:34:49.204Z,77.88
2022-12-16T06:36:09.136Z,77.95
2022-12-16T06:37:29.463Z,77.47
2022-12-16T06:38:49.730Z,77.91
2022-12-16T06:40:10.255Z,77.71
2022-12-16T06:41:31.935Z,77.90
2022-12-16T06:42:52.723Z,77.72
2022-12-16T06:44:23.169Z,77.52
2022-12-16T06:45:43.603Z,77.85
2022-12-16T06:47:03.930Z,77.75
2022-12-16T06:48:24.756Z,77.70
2022-12-16T06:49:44.926Z,78.02
2022-12-16T06:51:05.224Z,78.05
2022-12-16T06:52:25.592Z,78.13
2022-12-16T06:53:45.943Z,77.66
2022-12-16T06:55:06.263Z,77.92
2022-12-16T06:56:31.486Z,77.44
2022-12-16T06:57:56.025Z,77.51
2022-12-16T06:59:16.481Z,77.64
2022-12-16T07:00:36.822Z,77.85
2022-12-16T07:02:07.226Z,77.63
2022-12-16T07:03:37.919Z,77.89
2022-12-16T07:04:59.087Z,78.02
2022-12-16T07:06:19.561Z,77.54
2022-12-16T07:07:50.027Z,77.93
2022-12-16T07:09:16.105Z,77.69
2022-12-16T07:10:35.983Z,78.02
2022-12-16T07:11:56.212Z,77.85
2022-12-16T07:13:18.622Z,78.07
2022-12-16T07:14:38.962Z,77.75
2022-12-16T07:15:55.693Z,77.69
2022-12-16T07:17:16.931Z,77.70
2022-12-16T07:18:37.594Z,77.96
2022-12-16T07:19:57.790Z,77.69
2022-12-16T07:21:18.064Z,78.00
2022-12-16T07:22:38.367Z,78.31
2022-12-16T07:23:58.595Z,77.87
2022-12-16T07:25:18.802Z,77.83
2022-12-16T07:26:39.143Z,77.99
2022-12-16T07:28:18.974Z,78.12
2022-12-16T07:29:40.584Z,78.09
2022-12-16T07:31:02.017Z,77.60
2022-12-16T07:32:23.833Z,77.98
2022-12-16T07:33:43.584Z,77.96
2022-12-16T07:35:03.822Z,77.92
2022-12-16T07:36:24.715Z,78.17
2022-12-16T07:37:44.957Z,78.07
2022-12-16T07:39:05.208Z,77.88
2022-12-16T07:40:29.249Z,77.73
2022-12-16T07:41:50.790Z,78.18
2022-12-16T07:43:10.959Z,77.65
2022-12-16T07:44:31.290Z,78.03
2022-12-16T07:45:52.969Z,78.08
2022-12-16T07:47:14.174Z,77.96
2022-12-16T07:48:34.454Z,77.94
2022-12-16T07:49:55.533Z,77.98
2022-12-16T07:51:16.293Z,77.52
2022-12-16T07:52:36.325Z,78.03
2022-12-16T07:53:56.638Z,77.55
2022-12-16T07:55:16.902Z,77.87
2022-12-16T07:56:37.081Z,77.68
2022-12-16T07:57:57.397Z,77.84
2022-12-16T07:59:17.619Z,78.04
2022-12-16T08:00:41.642Z,77.98
2022-12-16T08:02:04.016Z,77.92
2022-12-16T08:03:24.210Z,78.10
2022-12-16T08:04:45.421Z,77.68
2022-12-16T08:06:05.687Z,77.90
2022-12-16T08:07:26.148Z,77.85
2022-12-16T08:08:46.270Z,77.69
2022-12-16T08:10:06.689Z,77.97
2022-12-16T08:11:27.143Z,77.71
2022-12-16T08:12:47.449Z,77.91
2022-12-16T08:14:07.764Z,77.78
2022-12-16T08:15:30.291Z,77.87
2022-12-16T08:16:50.690Z,77.89
2022-12-16T08:18:13.140Z,77.88
2022-12-16T08:19:33.345Z,77.56
2022-12-16T08:20:53.534Z,77.69
2022-12-16T08:22:15.319Z,77.80
2022-12-16T08:23:36.006Z,77.87
2022-12-16T08:24:56.284Z,77.92
2022-12-16T08:26:16.991Z,77.62
2022-12-16T08:27:39.318Z,77.88
2022-12-16T08:29:20.193Z,77.99
2022-12-16T08:30:42.032Z,77.74
2022-12-16T08:32:02.278Z,77.89
2022-12-16T08:33:23.698Z,77.65
2022-12-16T08:34:44.009Z,77.55
2022-12-16T08:36:04.415Z,77.60
2022-12-16T08:37:24.806Z,77.23
2022-12-16T08:38:44.800Z,77.47
2022-12-16T08:40:33.708Z,77.25
2022-12-16T08:41:45.005Z,77.01
2022-12-16T08:43:10.877Z,76.87
2022-12-16T08:44:32.604Z,76.57
2022-12-16T08:45:52.729Z,76.28
2022-12-16T08:47:13.284Z,76.22
2022-12-16T08:48:34.893Z,76.24
2022-12-16T08:50:04.706Z,75.90
2022-12-16T08:51:26.614Z,76.28
2022-12-16T08:52:46.970Z,76.38
2022-12-16T08:54:07.324Z,76.00
2022-12-16T08:55:29.686Z,76.12
2022-12-16T08:56:50.236Z,75.69
2022-12-16T08:58:13.083Z,75.94
2022-12-16T08:59:34.390Z,75.70
2022-12-16T09:01:07.330Z,76.17
2022-12-16T09:02:29.914Z,75.63
2022-12-16T09:03:51.594Z,75.49
2022-12-16T09:05:11.825Z,75.40
2022-12-16T09:06:35.628Z,75.26
2022-12-16T09:08:00.250Z,75.80
2022-12-16T09:09:20.215Z,75.56
2022-12-16T09:10:40.807Z,75.29
2022-12-16T09:12:00.813Z,75.24
2022-12-16T09:13:25.195Z,75.08
2022-12-16T09:14:45.499Z,75.02
2022-12-16T09:16:05.642Z,74.78
2022-12-16T09:17:25.915Z,74.77
2022-12-16T09:18:46.152Z,74.41
2022-12-16T09:20:07.415Z,74.41
2022-12-16T09:21:31.760Z,74.82
2022-12-16T09:22:53.542Z,74.55
2022-12-16T09:24:15.531Z,74.63
2022-12-16T09:25:35.796Z,74.70
2022-12-16T09:26:56.213Z,74.69
2022-12-16T09:28:21.916Z,74.44
2022-12-16T09:29:45.098Z,73.84
2022-12-16T09:31:05.665Z,74.30
2022-12-16T09:32:35.723Z,74.13
2022-12-16T09:33:58.281Z,74.49
2022-12-16T09:35:23.154Z,74.30
2022-12-16T09:36:43.395Z,74.13
2022-12-16T09:38:03.929Z,73.73
2022-12-16T09:39:24.259Z,73.80
2022-12-16T09:40:44.677Z,74.14
2022-12-16T09:42:19.945Z,74.14
2022-12-16T09:43:54.401Z,73.68
2022-12-16T09:45:22.355Z,73.64
2022-12-16T09:46:50.668Z,74.61
2022-12-16T09:48:17.918Z,73.84
2022-12-16T09:49:47.331Z,73.70
2022-12-16T09:51:12.628Z,73.97
2022-12-16T09:52:37.080Z,73.80
2022-12-16T09:53:59.385Z,73.82
2022-12-16T09:55:21.753Z,73.94
2022-12-16T09:56:49.639Z,73.84
2022-12-16T09:58:10.838Z,73.94
2022-12-16T09:59:34.124Z,74.21
2022-12-16T10:00:55.076Z,74.16
2022-12-16T10:02:15.512Z,74.26
2022-12-16T10:03:41.441Z,74.26
2022-12-16T10:05:11.625Z,73.75
2022-12-16T10:07:02.530Z,74.33
2022-12-16T10:08:36.505Z,73.76
2022-12-16T10:10:04.922Z,73.36
2022-12-16T10:11:30.622Z,74.05
2022-12-16T10:12:58.929Z,73.74
2022-12-16T10:14:24.103Z,73.82
2022-12-16T10:15:52.569Z,73.57
2022-12-16T10:17:23.411Z,74.32
2022-12-16T10:18:59.936Z,74.05
2022-12-16T10:20:29.385Z,74.08
2022-12-16T10:22:03.437Z,73.73
2022-12-16T10:23:34.134Z,74.38
2022-12-16T10:25:07.158Z,74.26
2022-12-16T10:26:35.610Z,74.21
2022-12-16T10:28:01.992Z,74.01
2022-12-16T10:29:38.016Z,74.17
2022-12-16T10:30:59.733Z,73.46
2022-12-16T10:32:25.425Z,73.72
2022-12-16T10:33:53.127Z,73.71
2022-12-16T10:35:13.423Z,73.40
2022-12-16T10:36:39.168Z,73.60
2022-12-16T10:37:57.913Z,73.42
2022-12-16T10:39:21.057Z,73.91
2022-12-16T10:40:44.907Z,74.00
2022-12-16T10:42:09.920Z,74.09
2022-12-16T10:43:39.989Z,73.85
2022-12-16T10:45:10.748Z,74.03
2022-12-16T10:46:32.398Z,73.84
2022-12-16T10:47:52.343Z,73.65
2022-12-16T10:49:12.740Z,74.29
2022-12-16T10:50:33.899Z,74.04
2022-12-16T10:51:54.157Z,74.21
2022-12-16T10:53:28.639Z,74.27
2022-12-16T10:55:02.527Z,74.04
2022-12-16T10:56:43.499Z,74.10
2022-12-16T10:58:14.769Z,73.72
2022-12-16T10:59:35.090Z,73.93
2022-12-16T11:01:01.258Z,74.25
2022-12-16T11:02:23.278Z,74.32
2022-12-16T11:03:45.382Z,74.30
2022-12-16T11:05:07.275Z,74.19
2022-12-16T11:06:29.175Z,74.20
2022-12-16T11:07:52.617Z,74.20
2022-12-16T11:09:14.651Z,74.13
2022-12-16T11:10:50.296Z,74.93
2022-12-16T11:12:11.528Z,74.78
2022-12-16T11:13:36.830Z,74.80
2022-12-16T11:15:27.510Z,74.92
2022-12-16T11:16:40.102Z,74.71
2022-12-16T11:18:20.683Z,74.93
2022-12-16T11:19:42.837Z,74.45
2022-12-16T11:21:07.038Z,75.09
2022-12-16T11:22:39.078Z,74.61
2022-12-16T11:24:25.094Z,75.31
2022-12-16T11:25:45.791Z,75.06
2022-12-16T11:27:11.457Z,74.90
2022-12-16T11:28:33.815Z,75.25
2022-12-16T11:30:08.273Z,75.18
2022-12-16T11:31:33.737Z,74.93
2022-12-16T11:32:55.266Z,75.10
2022-12-16T11:34:22.272Z,75.08
2022-12-16T11:35:46.294Z,75.20
2022-12-16T11:37:10.927Z,75.39
2022-12-16T11:38:42.372Z,75.16
2022-12-16T11:40:03.875Z,75.25
2022-12-16T11:41:25.596Z,75.29
2022-12-16T11:43:09.475Z,76.04
2022-12-16T11:44:38.399Z,75.36
2022-12-16T11:45:58.998Z,75.34
2022-12-16T11:47:19.360Z,75.53
2022-12-16T11:48:55.275Z,75.75
2022-12-16T11:50:17.248Z,75.36
2022-12-16T11:51:49.995Z,75.85
2022-12-16T11:53:24.005Z,75.76
2022-12-16T11:54:48.897Z,75.15
2022-12-16T11:56:16.388Z,75.94
2022-12-16T11:57:41.407Z,76.26
2022-12-16T11:59:05.990Z,76.00
2022-12-16T12:00:33.462Z,75.65
2022-12-16T12:02:01.302Z,75.56
2022-12-16T12:03:25.521Z,76.06
2022-12-16T12:04:45.823Z,75.74
2022-12-16T12:06:18.239Z,75.70
2022-12-16T12:07:53.518Z,76.37
2022-12-16T12:09:23.117Z,76.26
2022-12-16T12:11:07.885Z,76.25
2022-12-16T12:12:39.402Z,76.29
2022-12-16T12:14:22.571Z,75.83
2022-12-16T12:15:49.930Z,76.45
2022-12-16T12:17:23.421Z,76.15
2022-12-16T12:18:59.457Z,76.22
2022-12-16T12:20:43.192Z,76.21
2022-12-16T12:22:10.118Z,76.45
2022-12-16T12:23:33.498Z,76.30
2022-12-16T12:25:01.080Z,76.62
2022-12-16T12:26:30.453Z,76.45
2022-12-16T12:28:03.064Z,76.16
2022-12-16T12:29:33.117Z,76.67
2022-12-16T12:31:01.636Z,76.19
2022-12-16T12:32:28.154Z,76.58
2022-12-16T12:33:56.236Z,76.78
2022-12-16T12:35:29.314Z,76.98
2022-12-16T12:36:57.174Z,76.90
2022-12-16T12:38:23.378Z,77.07
2022-12-16T12:40:03.291Z,76.62
2022-12-16T12:41:33.703Z,77.36
2022-12-16T12:43:03.827Z,76.70
2022-12-16T12:44:37.073Z,76.79
2022-12-16T12:46:20.174Z,76.97
2022-12-16T12:47:41.466Z,76.55
2022-12-16T12:49:10.872Z,77.08
2022-12-16T12:50:39.745Z,76.54
2022-12-16T12:52:10.608Z,77.12
2022-12-16T12:53:44.563Z,76.75
2022-12-16T12:55:12.438Z,76.79
2022-12-16T12:56:46.786Z,77.26
2022-12-16T12:58:10.235Z,77.07
2022-12-16T12:59:35.078Z,77.28
2022-12-16T13:01:03.040Z,76.81
2022-12-16T13:02:32.226Z,77.23
2022-12-16T13:03:57.230Z,77.75
2022-12-16T13:05:23.992Z,77.72
2022-12-16T13:06:55.704Z,77.38
2022-12-16T13:09:00.706Z,77.38
2022-12-16T13:10:34.304Z,77.41
2022-12-16T13:11:55.175Z,77.46
2022-12-16T13:13:52.906Z,77.80
2022-12-16T13:15:21.204Z,77.76
2022-12-16T13:17:25.892Z,77.85
2022-12-16T13:18:48.014Z,77.64
2022-12-16T13:20:17.527Z,77.91
2022-12-16T13:21:59.359Z,77.81
2022-12-16T13:23:48.556Z,77.82
2022-12-16T13:25:10.758Z,77.70
2022-12-16T13:26:33.616Z,77.82
2022-12-16T13:28:13.074Z,77.85
2022-12-16T13:29:38.613Z,77.75
2022-12-16T13:31:23.288Z,77.95
2022-12-16T13:33:00.718Z,77.49
2022-12-16T13:34:25.993Z,77.99
2022-12-16T13:35:46.457Z,77.79
2022-12-16T13:37:15.681Z,77.35
2022-12-16T13:38:40.398Z,78.26
2022-12-16T13:40:02.256Z,77.84
2022-12-16T13:41:23.985Z,77.90
2022-12-16T13:43:06.048Z,78.17
2022-12-16T13:44:27.156Z,78.02
2022-12-16T13:45:50.901Z,77.98
2022-12-16T13:47:14.463Z,77.87
2022-12-16T13:48:53.722Z,78.26
2022-12-16T13:50:14.055Z,78.13
2022-12-16T13:52:15.433Z,78.81
2022-12-16T13:53:38.209Z,78.55
2022-12-16T13:55:04.771Z,78.61
2022-12-16T13:56:25.580Z,78.54
2022-12-16T13:57:48.844Z,78.18
2022-12-16T13:59:11.786Z,78.71
2022-12-16T14:00:37.037Z,78.29
2022-12-16T14:02:06.955Z,78.47
2022-12-16T14:03:33.933Z,78.59
2022-12-16T14:04:58.870Z,78.36
2022-12-16T14:06:35.292Z,78.36
2022-12-16T14:07:59.265Z,78.72
2022-12-16T14:09:22.868Z,78.44
2022-12-16T14:10:47.266Z,78.99
2022-12-16T14:12:14.357Z,79.30
2022-12-16T14:13:42.090Z,79.22
2022-12-16T14:15:07.164Z,79.23
2022-12-16T14:16:34.066Z,78.73
2022-12-16T14:18:02.515Z,78.55
2022-12-16T14:19:36.078Z,79.16
2022-12-16T14:21:05.028Z,78.90
2022-12-16T14:22:39.959Z,78.92
2022-12-16T14:24:12.131Z,78.90
2022-12-16T14:25:33.956Z,79.14
2022-12-16T14:26:56.994Z,78.92
2022-12-16T14:28:17.372Z,79.45
2022-12-16T14:29:41.846Z,79.43
2022-12-16T14:31:02.196Z,79.71
2022-12-16T14:32:37.104Z,79.18
2022-12-16T14:33:57.471Z,79.13
2022-12-16T14:35:20.898Z,79.41
2022-12-16T14:36:43.714Z,79.00
2022-12-16T14:38:04.530Z,79.12
2022-12-16T14:39:29.201Z,79.08
2022-12-16T14:40:51.604Z,79.17
2022-12-16T14:42:12.423Z,79.76
2022-12-16T14:43:35.088Z,79.67
2022-12-16T14:44:55.965Z,79.44
2022-12-16T14:46:17.097Z,79.31
2022-12-16T14:47:40.347Z,79.55
2022-12-16T14:49:04.750Z,79.72
2022-12-16T14:50:38.452Z,79.65
2022-12-16T14:52:06.880Z,79.78
2022-12-16T14:53:37.026Z,78.95
2022-12-16T14:55:00.640Z,79.26
2022-12-16T14:56:48.729Z,79.37
2022-12-16T14:58:21.581Z,79.74
2022-12-16T14:59:42.050Z,79.68
2022-12-16T15:01:02.406Z,79.80
2022-12-16T15:02:38.564Z,79.53
2022-12-16T15:04:00.702Z,79.47
2022-12-16T15:05:21.374Z,79.38
2022-12-16T15:06:46.283Z,79.97
2022-12-16T15:08:06.783Z,79.92
2022-12-16T15:09:36.306Z,79.92
2022-12-16T15:10:56.700Z,80.31
2022-12-16T15:12:17.001Z,79.41
2022-12-16T15:13:37.934Z,79.87
2022-12-16T15:14:59.786Z,80.31
2022-12-16T15:16:21.315Z,79.76
2022-12-16T15:17:43.668Z,79.99
2022-12-16T15:19:08.481Z,79.83
2022-12-16T15:20:35.266Z,80.46
2022-12-16T15:21:58.516Z,80.24
2022-12-16T15:23:19.183Z,80.41
2022-12-16T15:24:45.041Z,80.51
2022-12-16T15:26:10.878Z,80.23
2022-12-16T15:27:43.235Z,79.86
2022-12-16T15:29:03.691Z,80.48
2022-12-16T15:30:56.536Z,80.03
2022-12-16T15:32:16.658Z,80.16
2022-12-16T15:33:39.424Z,80.44
2022-12-16T15:35:06.331Z,80.55
2022-12-16T15:36:40.033Z,80.55
2022-12-16T15:38:04.629Z,80.62
2022-12-16T15:39:29.362Z,80.42
2022-12-16T15:40:58.986Z,80.10
2022-12-16T15:42:19.328Z,80.26
2022-12-16T15:43:46.865Z,80.42
2022-12-16T15:45:09.624Z,80.80
2022-12-16T15:46:41.043Z,80.21
2022-12-16T15:48:01.154Z,80.57
2022-12-16T15:49:22.054Z,80.20
2022-12-16T15:50:45.255Z,80.27
2022-12-16T15:52:07.121Z,80.05
2022-12-16T15:53:46.719Z,80.71
2022-12-16T15:55:11.684Z,80.66
2022-12-16T15:56:36.388Z,80.82
2022-12-16T15:57:57.738Z,80.76
2022-12-16T15:59:32.700Z,80.67
2022-12-16T16:00:53.580Z,80.56
2022-12-16T16:02:16.121Z,80.70
2022-12-16T16:03:42.376Z,80.68
2022-12-16T16:05:02.563Z,80.70
2022-12-16T16:06:22.826Z,80.89
2022-12-16T16:07:43.378Z,80.57
2022-12-16T16:09:08.649Z,80.42
2022-12-16T16:10:34.459Z,81.15
2022-12-16T16:11:54.857Z,80.82
2022-12-16T16:13:14.980Z,81.08
2022-12-16T16:14:35.138Z,81.16
2022-12-16T16:15:55.619Z,81.00
2022-12-16T16:17:15.779Z,81.22
2022-12-16T16:18:36.086Z,81.08
2022-12-16T16:20:01.628Z,80.57
2022-12-16T16:21:28.998Z,81.16
2022-12-16T16:22:49.479Z,80.99
2022-12-16T16:24:10.832Z,80.84
2022-12-16T16:25:31.097Z,81.16
2022-12-16T16:26:51.467Z,81.29
2022-12-16T16:28:11.828Z,81.58
2022-12-16T16:29:41.983Z,81.65
2022-12-16T16:31:03.575Z,81.48
2022-12-16T16:32:27.222Z,81.02
2022-12-16T16:33:47.489Z,81.35
2022-12-16T16:35:22.286Z,81.18
2022-12-16T16:36:42.186Z,81.18
2022-12-16T16:38:02.556Z,81.61
2022-12-16T16:39:24.245Z,80.95
2022-12-16T16:40:49.486Z,81.02
2022-12-16T16:42:18.115Z,81.57
2022-12-16T16:43:38.437Z,81.82
2022-12-16T16:44:58.504Z,81.19
2022-12-16T16:46:18.816Z,80.89
2022-12-16T16:47:38.799Z,81.19
2022-12-16T16:48:59.501Z,81.13
2022-12-16T16:50:19.881Z,80.86
2022-12-16T16:51:48.486Z,81.03
2022-12-16T16:53:08.726Z,81.43
2022-12-16T16:54:30.605Z,81.07
2022-12-16T16:55:50.860Z,80.88
2022-12-16T16:57:11.016Z,80.98
2022-12-16T16:58:35.027Z,81.43
2022-12-16T16:59:55.269Z,81.61
2022-12-16T17:01:15.695Z,81.21
2022-12-16T17:02:46.339Z,81.07
2022-12-16T17:04:21.594Z,81.77